sensor_id;sensor_type;location;lat;lon;timestamp;P1;durP1;ratioP1;P2;durP2;ratioP2
54557;SDS011;40452;50.080;20.040;2022-10-16T05:31:10;19.20;;;11.57;;
54557;SDS011;40452;50.080;20.040;2022-10-16T05:33:36;14.55;;;10.55;;
54557;SDS011;40452;50.080;20.040;2022-10-16T05:36:02;18.20;;;10.77;;
54557;SDS011;40452;50.080;20.040;2022-10-16T05:38:30;16.42;;;10.23;;
54557;SDS011;40452;50.080;20.040;2022-10-16T05:40:55;19.08;;;10.73;;
54557;SDS011;40452;50.080;20.040;2022-10-16T05:43:21;16.15;;;10.40;;
54557;SDS011;40452;50.080;20.040;2022-10-16T05:46:20;17.52;;;10.30;;
54557;SDS011;40452;50.080;20.040;2022-10-16T05:48:39;18.23;;;10.02;;
54557;SDS011;40452;50.080;20.040;2022-10-16T05:51:06;15.15;;;9.52;;
54557;SDS011;40452;50.080;20.040;2022-10-16T05:53:34;15.80;;;10.10;;
54557;SDS011;40452;50.080;20.040;2022-10-16T05:56:01;14.43;;;10.15;;
54557;SDS011;40452;50.080;20.040;2022-10-16T05:58:31;19.23;;;10.77;;
54557;SDS011;40452;50.080;20.040;2022-10-16T06:01:02;15.02;;;9.93;;
54557;SDS011;40452;50.080;20.040;2022-10-16T06:03:29;19.23;;;9.93;;
54557;SDS011;40452;50.080;20.040;2022-10-16T06:05:54;16.15;;;10.32;;
54557;SDS011;40452;50.080;20.040;2022-10-16T06:08:20;18.52;;;10.05;;
54557;SDS011;40452;50.080;20.040;2022-10-16T06:10:47;16.13;;;10.05;;
54557;SDS011;40452;50.080;20.040;2022-10-16T06:13:14;13.95;;;9.40;;
54557;SDS011;40452;50.080;20.040;2022-10-16T06:15:40;15.05;;;9.85;;
54557;SDS011;40452;50.080;20.040;2022-10-16T06:18:07;16.63;;;9.50;;
54557;SDS011;40452;50.080;20.040;2022-10-16T06:20:33;16.70;;;9.60;;
54557;SDS011;40452;50.080;20.040;2022-10-16T06:22:59;17.90;;;9.23;;
54557;SDS011;40452;50.080;20.040;2022-10-16T06:25:25;16.17;;;9.35;;
54557;SDS011;40452;50.080;20.040;2022-10-16T06:27:51;13.30;;;9.02;;
54557;SDS011;40452;50.080;20.040;2022-10-16T06:30:16;13.88;;;9.07;;
54557;SDS011;40452;50.080;20.040;2022-10-16T06:32:41;18.42;;;9.10;;
54557;SDS011;40452;50.080;20.040;2022-10-16T06:35:07;13.93;;;9.10;;
54557;SDS011;40452;50.080;20.040;2022-10-16T06:37:33;12.68;;;8.98;;
54557;SDS011;40452;50.080;20.040;2022-10-16T06:39:58;15.63;;;8.77;;
54557;SDS011;40452;50.080;20.040;2022-10-16T06:42:25;15.52;;;8.70;;
54557;SDS011;40452;50.080;20.040;2022-10-16T06:44:50;14.82;;;8.40;;
54557;SDS011;40452;50.080;20.040;2022-10-16T06:47:16;14.10;;;8.57;;
54557;SDS011;40452;50.080;20.040;2022-10-16T06:49:41;12.15;;;8.20;;
54557;SDS011;40452;50.080;20.040;2022-10-16T06:52:07;13.95;;;8.77;;
54557;SDS011;40452;50.080;20.040;2022-10-16T06:54:32;14.18;;;8.63;;
54557;SDS011;40452;50.080;20.040;2022-10-16T06:56:58;13.25;;;8.98;;
54557;SDS011;40452;50.080;20.040;2022-10-16T06:59:24;12.93;;;8.95;;
54557;SDS011;40452;50.080;20.040;2022-10-16T07:01:50;13.88;;;8.88;;
54557;SDS011;40452;50.080;20.040;2022-10-16T07:04:15;14.05;;;8.60;;
54557;SDS011;40452;50.080;20.040;2022-10-16T07:06:41;14.75;;;9.05;;
54557;SDS011;40452;50.080;20.040;2022-10-16T07:09:09;14.57;;;8.63;;
54557;SDS011;40452;50.080;20.040;2022-10-16T07:11:36;14.38;;;8.85;;
54557;SDS011;40452;50.080;20.040;2022-10-16T07:14:02;12.57;;;7.95;;
54557;SDS011;40452;50.080;20.040;2022-10-16T07:16:29;15.90;;;9.10;;
54557;SDS011;40452;50.080;20.040;2022-10-16T07:18:57;14.50;;;8.73;;
54557;SDS011;40452;50.080;20.040;2022-10-16T07:21:24;12.05;;;8.07;;
54557;SDS011;40452;50.080;20.040;2022-10-16T07:23:52;13.40;;;8.70;;
54557;SDS011;40452;50.080;20.040;2022-10-16T07:26:19;14.18;;;8.65;;
54557;SDS011;40452;50.080;20.040;2022-10-16T07:28:44;15.23;;;8.95;;
54557;SDS011;40452;50.080;20.040;2022-10-16T07:31:11;15.02;;;8.95;;
54557;SDS011;40452;50.080;20.040;2022-10-16T07:33:39;12.45;;;8.02;;
54557;SDS011;40452;50.080;20.040;2022-10-16T07:36:06;12.85;;;8.18;;
54557;SDS011;40452;50.080;20.040;2022-10-16T07:38:32;13.80;;;8.15;;
54557;SDS011;40452;50.080;20.040;2022-10-16T07:41:02;13.77;;;8.40;;
54557;SDS011;40452;50.080;20.040;2022-10-16T07:43:30;14.32;;;7.68;;
54557;SDS011;40452;50.080;20.040;2022-10-16T07:45:56;11.15;;;7.68;;
54557;SDS011;40452;50.080;20.040;2022-10-16T07:48:22;12.25;;;7.43;;
54557;SDS011;40452;50.080;20.040;2022-10-16T07:50:48;13.23;;;8.40;;
54557;SDS011;40452;50.080;20.040;2022-10-16T07:53:14;13.13;;;7.55;;
54557;SDS011;40452;50.080;20.040;2022-10-16T07:55:40;10.63;;;8.02;;
54557;SDS011;40452;50.080;20.040;2022-10-16T07:58:06;12.27;;;7.85;;
54557;SDS011;40452;50.080;20.040;2022-10-16T08:00:32;11.10;;;7.60;;
54557;SDS011;40452;50.080;20.040;2022-10-16T08:02:58;11.43;;;7.18;;
54557;SDS011;40452;50.080;20.040;2022-10-16T08:05:27;10.43;;;7.38;;
54557;SDS011;40452;50.080;20.040;2022-10-16T08:07:54;10.82;;;7.10;;
54557;SDS011;40452;50.080;20.040;2022-10-16T08:10:20;11.00;;;7.07;;
54557;SDS011;40452;50.080;20.040;2022-10-16T08:12:47;10.63;;;7.40;;
54557;SDS011;40452;50.080;20.040;2022-10-16T08:15:13;10.88;;;7.30;;
54557;SDS011;40452;50.080;20.040;2022-10-16T08:17:38;9.40;;;6.70;;
54557;SDS011;40452;50.080;20.040;2022-10-16T08:20:04;11.77;;;6.95;;
54557;SDS011;40452;50.080;20.040;2022-10-16T08:22:30;9.02;;;6.72;;
54557;SDS011;40452;50.080;20.040;2022-10-16T08:24:56;9.70;;;6.78;;
54557;SDS011;40452;50.080;20.040;2022-10-16T08:27:22;11.73;;;7.07;;
54557;SDS011;40452;50.080;20.040;2022-10-16T08:29:50;11.80;;;7.10;;
54557;SDS011;40452;50.080;20.040;2022-10-16T08:32:16;8.45;;;6.22;;
54557;SDS011;40452;50.080;20.040;2022-10-16T08:34:41;12.60;;;6.80;;
54557;SDS011;40452;50.080;20.040;2022-10-16T08:37:07;9.10;;;6.63;;
54557;SDS011;40452;50.080;20.040;2022-10-16T08:39:36;10.43;;;6.40;;
54557;SDS011;40452;50.080;20.040;2022-10-16T08:42:12;10.82;;;6.15;;
54557;SDS011;40452;50.080;20.040;2022-10-16T08:45:28;12.93;;;6.57;;
54557;SDS011;40452;50.080;20.040;2022-10-16T08:48:17;9.63;;;6.50;;
54557;SDS011;40452;50.080;20.040;2022-10-16T08:50:48;10.43;;;6.43;;
54557;SDS011;40452;50.080;20.040;2022-10-16T08:53:24;8.23;;;6.20;;
54557;SDS011;40452;50.080;20.040;2022-10-16T08:55:56;11.60;;;7.07;;
54557;SDS011;40452;50.080;20.040;2022-10-16T08:58:26;14.27;;;6.95;;
54557;SDS011;40452;50.080;20.040;2022-10-16T09:00:54;11.10;;;6.57;;
54557;SDS011;40452;50.080;20.040;2022-10-16T09:06:17;11.68;;;6.80;;
54557;SDS011;40452;50.080;20.040;2022-10-16T09:20:11;9.23;;;6.65;;
54557;SDS011;40452;50.080;20.040;2022-10-16T09:23:08;8.48;;;6.25;;
54557;SDS011;40452;50.080;20.040;2022-10-16T09:25:39;11.25;;;6.50;;
54557;SDS011;40452;50.080;20.040;2022-10-16T09:28:09;10.85;;;6.50;;
54557;SDS011;40452;50.080;20.040;2022-10-16T09:30:35;9.02;;;6.10;;
54557;SDS011;40452;50.080;20.040;2022-10-16T09:33:01;8.40;;;6.13;;
54557;SDS011;40452;50.080;20.040;2022-10-16T09:35:34;9.88;;;6.38;;
54557;SDS011;40452;50.080;20.040;2022-10-16T09:38:03;12.90;;;6.68;;
54557;SDS011;40452;50.080;20.040;2022-10-16T09:43:41;8.30;;;6.00;;
54557;SDS011;40452;50.080;20.040;2022-10-16T09:48:26;9.50;;;6.25;;
54557;SDS011;40452;50.080;20.040;2022-10-16T09:50:59;9.55;;;6.68;;
54557;SDS011;40452;50.080;20.040;2022-10-16T09:53:37;9.00;;;6.65;;
54557;SDS011;40452;50.080;20.040;2022-10-16T09:56:05;9.57;;;6.75;;
54557;SDS011;40452;50.080;20.040;2022-10-16T09:58:31;12.98;;;6.97;;
54557;SDS011;40452;50.080;20.040;2022-10-16T10:00:58;10.80;;;6.93;;
54557;SDS011;40452;50.080;20.040;2022-10-16T10:03:33;10.07;;;7.15;;
54557;SDS011;40452;50.080;20.040;2022-10-16T10:08:53;11.73;;;7.47;;
54557;SDS011;40452;50.080;20.040;2022-10-16T10:11:35;14.73;;;8.10;;
54557;SDS011;40452;50.080;20.040;2022-10-16T10:14:06;13.95;;;8.35;;
54557;SDS011;40452;50.080;20.040;2022-10-16T10:16:49;12.85;;;8.50;;
54557;SDS011;40452;50.080;20.040;2022-10-16T10:19:16;16.92;;;9.15;;
54557;SDS011;40452;50.080;20.040;2022-10-16T10:21:47;12.95;;;7.82;;
54557;SDS011;40452;50.080;20.040;2022-10-16T10:24:14;12.25;;;7.88;;
54557;SDS011;40452;50.080;20.040;2022-10-16T10:29:45;11.60;;;8.38;;
54557;SDS011;40452;50.080;20.040;2022-10-16T10:32:33;13.63;;;8.38;;
54557;SDS011;40452;50.080;20.040;2022-10-16T10:35:11;15.40;;;9.15;;
54557;SDS011;40452;50.080;20.040;2022-10-16T10:42:50;15.77;;;8.13;;
54557;SDS011;40452;50.080;20.040;2022-10-16T10:56:22;16.15;;;8.68;;
54557;SDS011;40452;50.080;20.040;2022-10-16T10:59:09;15.40;;;8.48;;
54557;SDS011;40452;50.080;20.040;2022-10-16T11:01:56;13.15;;;7.90;;
54557;SDS011;40452;50.080;20.040;2022-10-16T11:07:45;12.38;;;7.10;;
54557;SDS011;40452;50.080;20.040;2022-10-16T11:10:29;10.80;;;7.28;;
54557;SDS011;40452;50.080;20.040;2022-10-16T11:16:00;14.95;;;7.63;;
54557;SDS011;40452;50.080;20.040;2022-10-16T11:18:40;13.13;;;8.20;;
54557;SDS011;40452;50.080;20.040;2022-10-16T11:21:37;13.57;;;7.45;;
54557;SDS011;40452;50.080;20.040;2022-10-16T11:26:44;12.05;;;6.97;;
54557;SDS011;40452;50.080;20.040;2022-10-16T11:29:19;10.65;;;7.72;;
54557;SDS011;40452;50.080;20.040;2022-10-16T11:31:51;9.90;;;7.32;;
54557;SDS011;40452;50.080;20.040;2022-10-16T11:37:26;13.15;;;7.47;;
54557;SDS011;40452;50.080;20.040;2022-10-16T11:39:57;12.35;;;7.25;;
54557;SDS011;40452;50.080;20.040;2022-10-16T11:42:32;12.60;;;7.25;;
54557;SDS011;40452;50.080;20.040;2022-10-16T11:53:42;10.55;;;7.13;;
54557;SDS011;40452;50.080;20.040;2022-10-16T11:56:29;11.13;;;6.50;;
54557;SDS011;40452;50.080;20.040;2022-10-16T11:59:01;13.55;;;6.53;;
54557;SDS011;40452;50.080;20.040;2022-10-16T12:04:22;9.55;;;6.90;;
54557;SDS011;40452;50.080;20.040;2022-10-16T12:07:06;11.32;;;6.60;;
54557;SDS011;40452;50.080;20.040;2022-10-16T12:09:39;10.77;;;7.22;;
54557;SDS011;40452;50.080;20.040;2022-10-16T12:15:03;9.60;;;6.40;;
54557;SDS011;40452;50.080;20.040;2022-10-16T12:22:40;9.02;;;6.55;;
54557;SDS011;40452;50.080;20.040;2022-10-16T12:25:31;11.65;;;6.40;;
54557;SDS011;40452;50.080;20.040;2022-10-16T12:28:06;8.93;;;6.30;;
54557;SDS011;40452;50.080;20.040;2022-10-16T12:30:51;9.10;;;6.28;;
54557;SDS011;40452;50.080;20.040;2022-10-16T12:33:29;9.52;;;6.57;;
54557;SDS011;40452;50.080;20.040;2022-10-16T12:35:57;10.07;;;6.30;;
54557;SDS011;40452;50.080;20.040;2022-10-16T12:38:25;10.65;;;5.97;;
54557;SDS011;40452;50.080;20.040;2022-10-16T12:41:03;9.27;;;6.18;;
54557;SDS011;40452;50.080;20.040;2022-10-16T12:46:20;8.20;;;6.35;;
54557;SDS011;40452;50.080;20.040;2022-10-16T12:48:48;8.85;;;5.93;;
54557;SDS011;40452;50.080;20.040;2022-10-16T12:51:22;9.95;;;5.80;;
54557;SDS011;40452;50.080;20.040;2022-10-16T12:54:01;8.00;;;6.30;;
54557;SDS011;40452;50.080;20.040;2022-10-16T12:56:37;10.25;;;6.68;;
54557;SDS011;40452;50.080;20.040;2022-10-16T13:02:31;9.70;;;6.00;;
54557;SDS011;40452;50.080;20.040;2022-10-16T13:14:02;9.30;;;5.78;;
54557;SDS011;40452;50.080;20.040;2022-10-16T13:22:15;10.80;;;6.28;;
54557;SDS011;40452;50.080;20.040;2022-10-16T13:27:16;10.32;;;6.18;;
54557;SDS011;40452;50.080;20.040;2022-10-16T13:30:07;9.30;;;6.30;;
54557;SDS011;40452;50.080;20.040;2022-10-16T13:32:47;9.55;;;6.30;;
54557;SDS011;40452;50.080;20.040;2022-10-16T13:35:29;15.48;;;7.15;;
54557;SDS011;40452;50.080;20.040;2022-10-16T13:40:30;13.40;;;7.18;;
54557;SDS011;40452;50.080;20.040;2022-10-16T13:42:55;10.23;;;6.93;;
54557;SDS011;40452;50.080;20.040;2022-10-16T13:45:22;13.23;;;7.50;;
54557;SDS011;40452;50.080;20.040;2022-10-16T13:47:50;11.23;;;7.13;;
54557;SDS011;40452;50.080;20.040;2022-10-16T13:50:26;12.07;;;6.47;;
54557;SDS011;40452;50.080;20.040;2022-10-16T13:52:51;12.48;;;6.68;;
54557;SDS011;40452;50.080;20.040;2022-10-16T13:55:18;12.55;;;6.65;;
54557;SDS011;40452;50.080;20.040;2022-10-16T13:57:43;11.30;;;7.05;;
54557;SDS011;40452;50.080;20.040;2022-10-16T14:00:23;9.95;;;6.32;;
54557;SDS011;40452;50.080;20.040;2022-10-16T14:03:01;11.13;;;6.50;;
54557;SDS011;40452;50.080;20.040;2022-10-16T14:05:29;9.90;;;6.80;;
54557;SDS011;40452;50.080;20.040;2022-10-16T14:07:54;11.02;;;6.25;;
54557;SDS011;40452;50.080;20.040;2022-10-16T14:10:25;9.43;;;6.30;;
54557;SDS011;40452;50.080;20.040;2022-10-16T14:13:01;11.00;;;6.70;;
54557;SDS011;40452;50.080;20.040;2022-10-16T14:15:29;9.65;;;6.35;;
54557;SDS011;40452;50.080;20.040;2022-10-16T14:17:56;9.32;;;5.88;;
54557;SDS011;40452;50.080;20.040;2022-10-16T14:20:24;10.75;;;6.03;;
54557;SDS011;40452;50.080;20.040;2022-10-16T14:28:36;7.45;;;5.65;;
54557;SDS011;40452;50.080;20.040;2022-10-16T14:31:13;11.23;;;6.03;;
54557;SDS011;40452;50.080;20.040;2022-10-16T14:33:48;9.20;;;5.95;;
54557;SDS011;40452;50.080;20.040;2022-10-16T14:36:14;9.13;;;6.07;;
54557;SDS011;40452;50.080;20.040;2022-10-16T14:39:27;11.57;;;6.13;;
54557;SDS011;40452;50.080;20.040;2022-10-16T14:41:45;9.32;;;5.75;;
54557;SDS011;40452;50.080;20.040;2022-10-16T14:44:17;8.73;;;6.03;;
54557;SDS011;40452;50.080;20.040;2022-10-16T14:46:44;10.20;;;5.88;;
54557;SDS011;40452;50.080;20.040;2022-10-16T14:51:36;9.15;;;5.68;;
54557;SDS011;40452;50.080;20.040;2022-10-16T14:54:03;9.75;;;5.53;;
54557;SDS011;40452;50.080;20.040;2022-10-16T14:56:30;8.50;;;6.03;;
54557;SDS011;40452;50.080;20.040;2022-10-16T14:59:00;8.27;;;5.50;;
54557;SDS011;40452;50.080;20.040;2022-10-16T15:01:27;10.48;;;5.53;;
54557;SDS011;40452;50.080;20.040;2022-10-16T15:03:52;8.40;;;5.43;;
54557;SDS011;40452;50.080;20.040;2022-10-16T15:06:19;10.00;;;5.70;;
54557;SDS011;40452;50.080;20.040;2022-10-16T15:08:45;8.38;;;5.65;;
54557;SDS011;40452;50.080;20.040;2022-10-16T15:11:15;12.60;;;5.60;;
54557;SDS011;40452;50.080;20.040;2022-10-16T15:13:42;8.52;;;5.72;;
54557;SDS011;40452;50.080;20.040;2022-10-16T15:16:11;8.07;;;5.47;;
54557;SDS011;40452;50.080;20.040;2022-10-16T15:18:39;8.40;;;5.50;;
54557;SDS011;40452;50.080;20.040;2022-10-16T15:21:04;10.95;;;5.40;;
54557;SDS011;40452;50.080;20.040;2022-10-16T15:23:30;8.50;;;5.10;;
54557;SDS011;40452;50.080;20.040;2022-10-16T15:25:56;7.82;;;4.85;;
54557;SDS011;40452;50.080;20.040;2022-10-16T15:28:22;7.57;;;5.28;;
54557;SDS011;40452;50.080;20.040;2022-10-16T15:30:50;8.50;;;5.30;;
54557;SDS011;40452;50.080;20.040;2022-10-16T15:33:18;8.52;;;5.35;;
54557;SDS011;40452;50.080;20.040;2022-10-16T15:35:57;8.25;;;4.85;;
54557;SDS011;40452;50.080;20.040;2022-10-16T15:38:23;10.23;;;5.30;;
54557;SDS011;40452;50.080;20.040;2022-10-16T15:40:49;7.40;;;4.65;;
54557;SDS011;40452;50.080;20.040;2022-10-16T15:43:15;8.77;;;5.15;;
54557;SDS011;40452;50.080;20.040;2022-10-16T15:45:41;7.35;;;5.28;;
54557;SDS011;40452;50.080;20.040;2022-10-16T15:48:08;8.43;;;4.95;;
54557;SDS011;40452;50.080;20.040;2022-10-16T15:50:38;9.15;;;5.13;;
54557;SDS011;40452;50.080;20.040;2022-10-16T15:53:04;11.70;;;4.82;;
54557;SDS011;40452;50.080;20.040;2022-10-16T15:55:30;6.30;;;4.63;;
54557;SDS011;40452;50.080;20.040;2022-10-16T15:57:55;10.18;;;5.15;;
54557;SDS011;40452;50.080;20.040;2022-10-16T16:00:21;9.38;;;4.95;;
54557;SDS011;40452;50.080;20.040;2022-10-16T16:02:49;9.45;;;4.75;;
54557;SDS011;40452;50.080;20.040;2022-10-16T16:05:19;7.88;;;4.72;;
54557;SDS011;40452;50.080;20.040;2022-10-16T16:07:46;6.20;;;4.57;;
54557;SDS011;40452;50.080;20.040;2022-10-16T16:10:12;5.70;;;4.18;;
54557;SDS011;40452;50.080;20.040;2022-10-16T16:12:38;7.03;;;4.90;;
54557;SDS011;40452;50.080;20.040;2022-10-16T16:15:04;7.05;;;4.68;;
54557;SDS011;40452;50.080;20.040;2022-10-16T16:17:31;7.03;;;4.28;;
54557;SDS011;40452;50.080;20.040;2022-10-16T16:19:57;7.47;;;4.28;;
54557;SDS011;40452;50.080;20.040;2022-10-16T16:22:23;5.80;;;4.38;;
54557;SDS011;40452;50.080;20.040;2022-10-16T16:24:49;9.55;;;4.85;;
54557;SDS011;40452;50.080;20.040;2022-10-16T16:27:14;6.53;;;4.43;;
54557;SDS011;40452;50.080;20.040;2022-10-16T16:29:40;8.05;;;4.80;;
54557;SDS011;40452;50.080;20.040;2022-10-16T16:32:06;7.30;;;4.03;;
54557;SDS011;40452;50.080;20.040;2022-10-16T16:34:31;8.93;;;4.82;;
54557;SDS011;40452;50.080;20.040;2022-10-16T16:36:57;8.63;;;4.55;;
54557;SDS011;40452;50.080;20.040;2022-10-16T16:39:22;7.90;;;4.20;;
54557;SDS011;40452;50.080;20.040;2022-10-16T16:41:49;6.68;;;4.50;;
54557;SDS011;40452;50.080;20.040;2022-10-16T16:44:15;5.97;;;4.05;;
54557;SDS011;40452;50.080;20.040;2022-10-16T16:46:42;6.75;;;4.32;;
54557;SDS011;40452;50.080;20.040;2022-10-16T16:49:12;6.25;;;4.15;;
54557;SDS011;40452;50.080;20.040;2022-10-16T16:51:38;6.72;;;4.25;;
54557;SDS011;40452;50.080;20.040;2022-10-16T16:54:04;8.88;;;4.20;;
54557;SDS011;40452;50.080;20.040;2022-10-16T16:56:30;8.73;;;4.38;;
54557;SDS011;40452;50.080;20.040;2022-10-16T16:58:56;9.32;;;4.55;;
54557;SDS011;40452;50.080;20.040;2022-10-16T17:01:22;12.10;;;4.95;;
54557;SDS011;40452;50.080;20.040;2022-10-16T17:03:50;8.90;;;4.72;;
54557;SDS011;40452;50.080;20.040;2022-10-16T17:06:17;7.63;;;4.80;;
54557;SDS011;40452;50.080;20.040;2022-10-16T17:08:43;9.57;;;5.07;;
54557;SDS011;40452;50.080;20.040;2022-10-16T17:11:19;7.45;;;5.03;;
54557;SDS011;40452;50.080;20.040;2022-10-16T17:13:47;7.15;;;4.88;;
54557;SDS011;40452;50.080;20.040;2022-10-16T17:16:13;8.13;;;5.25;;
54557;SDS011;40452;50.080;20.040;2022-10-16T17:18:39;10.50;;;5.22;;
54557;SDS011;40452;50.080;20.040;2022-10-16T17:21:06;7.72;;;5.22;;
54557;SDS011;40452;50.080;20.040;2022-10-16T17:23:33;8.60;;;5.45;;
54557;SDS011;40452;50.080;20.040;2022-10-16T17:26:10;9.43;;;5.70;;
54557;SDS011;40452;50.080;20.040;2022-10-16T17:28:37;10.48;;;6.00;;
54557;SDS011;40452;50.080;20.040;2022-10-16T17:31:11;12.40;;;6.25;;
54557;SDS011;40452;50.080;20.040;2022-10-16T17:33:42;10.13;;;6.20;;
54557;SDS011;40452;50.080;20.040;2022-10-16T17:36:08;16.80;;;6.68;;
54557;SDS011;40452;50.080;20.040;2022-10-16T17:38:35;8.48;;;5.20;;
54557;SDS011;40452;50.080;20.040;2022-10-16T17:41:20;10.50;;;5.63;;
54557;SDS011;40452;50.080;20.040;2022-10-16T17:43:48;9.75;;;6.05;;
54557;SDS011;40452;50.080;20.040;2022-10-16T17:46:15;11.93;;;6.80;;
54557;SDS011;40452;50.080;20.040;2022-10-16T17:48:44;10.57;;;5.93;;
54557;SDS011;40452;50.080;20.040;2022-10-16T17:51:12;16.38;;;6.85;;
54557;SDS011;40452;50.080;20.040;2022-10-16T17:53:39;10.48;;;5.95;;
54557;SDS011;40452;50.080;20.040;2022-10-16T17:56:06;12.63;;;6.40;;
54557;SDS011;40452;50.080;20.040;2022-10-16T17:58:33;15.27;;;6.03;;
54557;SDS011;40452;50.080;20.040;2022-10-16T18:00:59;14.27;;;6.07;;
54557;SDS011;40452;50.080;20.040;2022-10-16T18:03:25;14.25;;;7.22;;
54557;SDS011;40452;50.080;20.040;2022-10-16T18:05:52;12.38;;;6.63;;
54557;SDS011;40452;50.080;20.040;2022-10-16T18:08:19;10.52;;;6.63;;
54557;SDS011;40452;50.080;20.040;2022-10-16T18:10:45;11.73;;;6.53;;
54557;SDS011;40452;50.080;20.040;2022-10-16T18:13:12;9.57;;;6.60;;
54557;SDS011;40452;50.080;20.040;2022-10-16T18:15:37;14.02;;;6.45;;
54557;SDS011;40452;50.080;20.040;2022-10-16T18:18:03;13.10;;;6.80;;
54557;SDS011;40452;50.080;20.040;2022-10-16T18:20:28;8.45;;;6.15;;
54557;SDS011;40452;50.080;20.040;2022-10-16T18:22:54;10.75;;;5.82;;
54557;SDS011;40452;50.080;20.040;2022-10-16T18:25:19;11.02;;;6.28;;
54557;SDS011;40452;50.080;20.040;2022-10-16T18:27:45;11.00;;;6.60;;
54557;SDS011;40452;50.080;20.040;2022-10-16T18:30:10;10.65;;;6.28;;
54557;SDS011;40452;50.080;20.040;2022-10-16T18:32:36;11.60;;;5.93;;
54557;SDS011;40452;50.080;20.040;2022-10-16T18:35:02;8.20;;;5.68;;
54557;SDS011;40452;50.080;20.040;2022-10-16T18:37:27;10.85;;;6.30;;
54557;SDS011;40452;50.080;20.040;2022-10-16T18:39:53;13.95;;;6.53;;
54557;SDS011;40452;50.080;20.040;2022-10-16T18:42:18;11.63;;;6.25;;
54557;SDS011;40452;50.080;20.040;2022-10-16T18:44:44;11.40;;;6.93;;
54557;SDS011;40452;50.080;20.040;2022-10-16T18:47:09;9.55;;;6.68;;
54557;SDS011;40452;50.080;20.040;2022-10-16T18:49:35;11.27;;;6.93;;
54557;SDS011;40452;50.080;20.040;2022-10-16T18:52:01;9.27;;;7.03;;
54557;SDS011;40452;50.080;20.040;2022-10-16T18:54:27;10.98;;;6.60;;
54557;SDS011;40452;50.080;20.040;2022-10-16T18:56:53;10.50;;;6.90;;
54557;SDS011;40452;50.080;20.040;2022-10-16T18:59:18;12.57;;;6.57;;
54557;SDS011;40452;50.080;20.040;2022-10-16T19:01:44;11.00;;;7.40;;
54557;SDS011;40452;50.080;20.040;2022-10-16T19:04:13;10.50;;;6.72;;
54557;SDS011;40452;50.080;20.040;2022-10-16T19:06:41;11.27;;;6.78;;
54557;SDS011;40452;50.080;20.040;2022-10-16T19:09:08;13.88;;;6.78;;
54557;SDS011;40452;50.080;20.040;2022-10-16T19:11:34;12.32;;;7.00;;
54557;SDS011;40452;50.080;20.040;2022-10-16T19:14:00;10.35;;;7.10;;
54557;SDS011;40452;50.080;20.040;2022-10-16T19:16:27;9.18;;;6.75;;
54557;SDS011;40452;50.080;20.040;2022-10-16T19:18:55;12.88;;;7.07;;
54557;SDS011;40452;50.080;20.040;2022-10-16T19:21:22;10.75;;;7.28;;
54557;SDS011;40452;50.080;20.040;2022-10-16T19:23:52;10.48;;;7.10;;
54557;SDS011;40452;50.080;20.040;2022-10-16T19:26:19;10.80;;;6.97;;
54557;SDS011;40452;50.080;20.040;2022-10-16T19:28:46;11.20;;;7.00;;
54557;SDS011;40452;50.080;20.040;2022-10-16T19:31:14;11.07;;;6.85;;
54557;SDS011;40452;50.080;20.040;2022-10-16T19:33:41;9.73;;;6.75;;
54557;SDS011;40452;50.080;20.040;2022-10-16T19:38:37;10.90;;;6.80;;
54557;SDS011;40452;50.080;20.040;2022-10-16T19:41:04;10.75;;;7.05;;
54557;SDS011;40452;50.080;20.040;2022-10-16T19:43:30;10.88;;;7.22;;
54557;SDS011;40452;50.080;20.040;2022-10-16T19:45:56;9.40;;;6.82;;
54557;SDS011;40452;50.080;20.040;2022-10-16T19:48:21;9.40;;;6.72;;
54557;SDS011;40452;50.080;20.040;2022-10-16T19:50:47;11.40;;;6.95;;
54557;SDS011;40452;50.080;20.040;2022-10-16T19:53:12;14.40;;;6.80;;
54557;SDS011;40452;50.080;20.040;2022-10-16T19:55:38;12.57;;;7.10;;
54557;SDS011;40452;50.080;20.040;2022-10-16T19:58:03;10.02;;;7.03;;
54557;SDS011;40452;50.080;20.040;2022-10-16T20:00:29;9.80;;;6.88;;
54557;SDS011;40452;50.080;20.040;2022-10-16T20:02:55;11.77;;;6.43;;
54557;SDS011;40452;50.080;20.040;2022-10-16T20:05:20;10.68;;;7.38;;
54557;SDS011;40452;50.080;20.040;2022-10-16T20:07:46;13.07;;;6.70;;
54557;SDS011;40452;50.080;20.040;2022-10-16T20:10:11;9.63;;;6.93;;
54557;SDS011;40452;50.080;20.040;2022-10-16T20:12:37;11.43;;;7.38;;
54557;SDS011;40452;50.080;20.040;2022-10-16T20:15:03;11.13;;;6.68;;
54557;SDS011;40452;50.080;20.040;2022-10-16T20:17:28;9.95;;;7.00;;
54557;SDS011;40452;50.080;20.040;2022-10-16T20:19:54;12.68;;;7.43;;
54557;SDS011;40452;50.080;20.040;2022-10-16T20:22:19;12.63;;;7.00;;
54557;SDS011;40452;50.080;20.040;2022-10-16T20:24:45;13.65;;;7.50;;
54557;SDS011;40452;50.080;20.040;2022-10-16T20:27:10;11.02;;;6.75;;
54557;SDS011;40452;50.080;20.040;2022-10-16T20:29:36;10.07;;;6.50;;
54557;SDS011;40452;50.080;20.040;2022-10-16T20:32:02;12.07;;;7.70;;
54557;SDS011;40452;50.080;20.040;2022-10-16T20:34:27;10.40;;;7.00;;
54557;SDS011;40452;50.080;20.040;2022-10-16T20:36:53;13.32;;;6.95;;
54557;SDS011;40452;50.080;20.040;2022-10-16T20:39:18;11.18;;;6.57;;
54557;SDS011;40452;50.080;20.040;2022-10-16T20:41:44;12.57;;;6.95;;
54557;SDS011;40452;50.080;20.040;2022-10-16T20:44:09;13.38;;;6.93;;
54557;SDS011;40452;50.080;20.040;2022-10-16T20:46:35;10.63;;;7.32;;
54557;SDS011;40452;50.080;20.040;2022-10-16T20:49:00;9.52;;;6.70;;
54557;SDS011;40452;50.080;20.040;2022-10-16T20:51:28;11.45;;;7.00;;
54557;SDS011;40452;50.080;20.040;2022-10-16T20:54:03;10.15;;;6.90;;
54557;SDS011;40452;50.080;20.040;2022-10-16T20:56:30;11.75;;;6.90;;
54557;SDS011;40452;50.080;20.040;2022-10-16T20:58:58;11.52;;;6.82;;
54557;SDS011;40452;50.080;20.040;2022-10-16T21:01:24;11.02;;;6.90;;
54557;SDS011;40452;50.080;20.040;2022-10-16T21:03:53;14.35;;;7.60;;
54557;SDS011;40452;50.080;20.040;2022-10-16T21:06:21;10.50;;;6.88;;
54557;SDS011;40452;50.080;20.040;2022-10-16T21:08:47;10.10;;;6.90;;
54557;SDS011;40452;50.080;20.040;2022-10-16T21:11:17;13.30;;;7.53;;
54557;SDS011;40452;50.080;20.040;2022-10-16T21:13:44;11.55;;;7.20;;
54557;SDS011;40452;50.080;20.040;2022-10-16T21:16:10;12.02;;;7.10;;
54557;SDS011;40452;50.080;20.040;2022-10-16T21:18:36;10.55;;;7.38;;
54557;SDS011;40452;50.080;20.040;2022-10-16T21:21:02;11.98;;;7.03;;
54557;SDS011;40452;50.080;20.040;2022-10-16T21:23:29;10.95;;;6.40;;
54557;SDS011;40452;50.080;20.040;2022-10-16T21:25:56;12.75;;;7.07;;
54557;SDS011;40452;50.080;20.040;2022-10-16T21:28:21;14.88;;;7.38;;
54557;SDS011;40452;50.080;20.040;2022-10-16T21:30:47;12.73;;;7.25;;
54557;SDS011;40452;50.080;20.040;2022-10-16T21:33:13;14.50;;;7.30;;
54557;SDS011;40452;50.080;20.040;2022-10-16T21:35:38;10.20;;;6.97;;
54557;SDS011;40452;50.080;20.040;2022-10-16T21:38:04;10.82;;;6.60;;
54557;SDS011;40452;50.080;20.040;2022-10-16T21:40:30;13.07;;;7.20;;
54557;SDS011;40452;50.080;20.040;2022-10-16T21:42:57;11.40;;;7.63;;
54557;SDS011;40452;50.080;20.040;2022-10-16T21:45:22;9.55;;;6.80;;
54557;SDS011;40452;50.080;20.040;2022-10-16T21:47:48;12.32;;;7.40;;
54557;SDS011;40452;50.080;20.040;2022-10-16T21:50:14;12.07;;;7.50;;
54557;SDS011;40452;50.080;20.040;2022-10-16T21:52:39;11.80;;;7.07;;
54557;SDS011;40452;50.080;20.040;2022-10-16T21:55:05;12.85;;;7.53;;